createdAt,value
2023-01-18T00:00:15.161Z,22.08
2023-01-18T00:02:47.054Z,22.03
2023-01-18T00:05:16.482Z,22.00
2023-01-18T00:07:47.133Z,21.99
2023-01-18T00:10:17.668Z,22.01
2023-01-18T00:12:52.171Z,22.05
2023-01-18T00:15:23.302Z,22.05
2023-01-18T00:17:53.947Z,22.04
2023-01-18T00:20:24.554Z,22.04
2023-01-18T00:22:58.446Z,22.03
2023-01-18T00:25:29.646Z,21.99
2023-01-18T00:27:57.748Z,21.99
2023-01-18T00:30:27.742Z,21.93
2023-01-18T00:33:02.150Z,21.95
2023-01-18T00:35:29.802Z,21.96
2023-01-18T00:38:00.405Z,21.93
2023-01-18T00:40:30.741Z,21.94
2023-01-18T00:43:16.502Z,21.93
2023-01-18T00:45:46.721Z,21.98
2023-01-18T00:48:24.772Z,21.97
2023-01-18T00:50:55.391Z,21.95
2023-01-18T00:53:25.672Z,21.90
2023-01-18T00:56:04.033Z,21.96
2023-01-18T00:58:37.344Z,21.90
2023-01-18T01:01:10.183Z,21.94
2023-01-18T01:03:57.166Z,21.96
2023-01-18T01:06:44.215Z,21.96
2023-01-18T01:09:23.501Z,21.90
2023-01-18T01:12:13.259Z,21.92
2023-01-18T01:15:01.795Z,21.85
2023-01-18T01:17:50.841Z,21.87
2023-01-18T01:20:42.785Z,21.87
2023-01-18T01:23:37.725Z,21.84
2023-01-18T01:26:06.715Z,21.84
2023-01-18T01:28:35.857Z,21.90
2023-01-18T01:31:05.197Z,21.92
2023-01-18T01:33:34.051Z,21.96
2023-01-18T01:36:14.387Z,21.95
2023-01-18T01:38:47.997Z,21.92
2023-01-18T01:41:26.885Z,21.92
2023-01-18T01:44:00.066Z,21.92
2023-01-18T01:46:46.119Z,21.90
2023-01-18T01:49:21.620Z,21.95
2023-01-18T01:52:11.591Z,21.92
2023-01-18T01:55:25.857Z,21.96
2023-01-18T01:58:00.242Z,21.99
2023-01-18T02:00:31.265Z,21.98
2023-01-18T02:03:10.669Z,21.94
2023-01-18T02:05:44.422Z,21.97
2023-01-18T02:08:13.124Z,22.05
2023-01-18T02:10:46.773Z,22.17
2023-01-18T02:13:18.973Z,22.27
2023-01-18T02:15:58.523Z,22.35
2023-01-18T02:18:47.105Z,22.37
2023-01-18T02:21:20.368Z,22.45
2023-01-18T02:24:07.651Z,22.47
2023-01-18T02:26:59.868Z,22.52
2023-01-18T02:29:42.286Z,22.57
2023-01-18T02:32:29.555Z,22.62
2023-01-18T02:35:08.872Z,22.74
2023-01-18T02:38:12.938Z,22.85
2023-01-18T02:41:14.329Z,22.73
2023-01-18T02:44:04.003Z,22.81
2023-01-18T02:46:35.846Z,22.82
2023-01-18T02:49:20.874Z,22.73
2023-01-18T02:52:00.028Z,22.54
2023-01-18T02:54:32.438Z,22.76
2023-01-18T02:57:03.509Z,22.73
2023-01-18T02:59:43.020Z,22.67
2023-01-18T03:02:20.920Z,22.70
2023-01-18T03:04:56.300Z,22.89
2023-01-18T03:07:40.180Z,22.77
2023-01-18T03:10:10.774Z,22.68
2023-01-18T03:12:46.848Z,22.80
2023-01-18T03:15:30.090Z,22.83
2023-01-18T03:18:07.016Z,22.95
2023-01-18T03:20:41.608Z,23.04
2023-01-18T03:23:37.982Z,22.98
2023-01-18T03:26:10.595Z,22.92
2023-01-18T03:28:59.247Z,23.03
2023-01-18T03:31:57.486Z,23.03
2023-01-18T03:34:49.679Z,23.10
2023-01-18T03:37:31.204Z,23.00
2023-01-18T03:40:20.948Z,22.98
2023-01-18T03:43:14.865Z,22.78
2023-01-18T03:45:47.463Z,22.68
2023-01-18T03:48:26.819Z,22.52
2023-01-18T03:51:06.635Z,22.43
2023-01-18T03:53:40.338Z,22.38
2023-01-18T03:56:13.766Z,22.32
2023-01-18T03:58:43.552Z,22.26
2023-01-18T04:01:12.107Z,22.26
2023-01-18T04:03:42.613Z,22.17
2023-01-18T04:06:13.713Z,22.12
2023-01-18T04:08:43.632Z,22.09
2023-01-18T04:11:14.072Z,22.04
2023-01-18T04:13:47.107Z,22.02
2023-01-18T04:16:20.838Z,22.02
2023-01-18T04:18:48.502Z,22.02
2023-01-18T04:21:22.598Z,22.04
2023-01-18T04:23:50.633Z,22.04
2023-01-18T04:26:19.671Z,22.03
2023-01-18T04:28:50.175Z,21.99
2023-01-18T04:31:20.725Z,21.94
2023-01-18T04:33:51.699Z,21.95
2023-01-18T04:36:24.859Z,21.94
2023-01-18T04:38:54.313Z,21.92
2023-01-18T04:41:25.185Z,21.83
2023-01-18T04:43:58.419Z,21.81
2023-01-18T04:46:31.153Z,21.80
2023-01-18T04:48:58.487Z,21.82
2023-01-18T04:51:31.317Z,21.86
2023-01-18T04:53:59.445Z,21.82
2023-01-18T04:56:27.402Z,21.82
2023-01-18T04:59:01.006Z,21.85
2023-01-18T05:01:29.645Z,21.79
2023-01-18T05:03:57.095Z,21.84
2023-01-18T05:06:24.644Z,21.77
2023-01-18T05:08:54.713Z,21.73
2023-01-18T05:11:24.744Z,21.78
2023-01-18T05:14:01.038Z,21.79
2023-01-18T05:16:31.177Z,21.76
2023-01-18T05:19:04.361Z,21.72
2023-01-18T05:21:37.005Z,21.64
2023-01-18T05:24:12.902Z,21.70
2023-01-18T05:26:43.142Z,21.82
2023-01-18T05:29:16.676Z,21.81
2023-01-18T05:31:44.281Z,21.83
2023-01-18T05:34:14.755Z,21.82
2023-01-18T05:36:49.386Z,21.81
2023-01-18T05:39:19.661Z,21.87
2023-01-18T05:41:47.269Z,21.87
2023-01-18T05:44:16.030Z,21.87
2023-01-18T05:46:51.132Z,21.86
2023-01-18T05:49:24.456Z,21.86
2023-01-18T05:51:52.857Z,21.85
2023-01-18T05:54:21.636Z,21.84
2023-01-18T05:56:51.902Z,21.86
2023-01-18T05:59:22.375Z,21.87
2023-01-18T06:01:49.946Z,21.86
2023-01-18T06:04:20.541Z,21.86
2023-01-18T06:06:50.680Z,21.86
2023-01-18T06:09:23.613Z,21.85
2023-01-18T06:11:54.132Z,21.84
2023-01-18T06:14:27.437Z,21.85
2023-01-18T06:17:01.696Z,21.82
2023-01-18T06:19:32.044Z,21.83
2023-01-18T06:22:04.570Z,21.86
2023-01-18T06:24:38.102Z,21.84
2023-01-18T06:27:11.743Z,21.83
2023-01-18T06:29:42.316Z,21.84
2023-01-18T06:32:10.019Z,21.77
2023-01-18T06:34:40.791Z,21.79
2023-01-18T06:37:16.009Z,21.66
2023-01-18T06:39:52.117Z,21.65
2023-01-18T06:42:24.722Z,21.65
2023-01-18T06:44:56.606Z,21.67
2023-01-18T06:47:29.623Z,21.67
2023-01-18T06:50:00.801Z,21.71
2023-01-18T06:52:28.483Z,21.72
2023-01-18T06:54:58.924Z,21.73
2023-01-18T06:57:29.916Z,21.74
2023-01-18T07:00:00.993Z,21.70
2023-01-18T07:02:34.291Z,21.69
2023-01-18T07:05:08.406Z,21.69
2023-01-18T07:07:38.953Z,21.77
2023-01-18T07:10:17.392Z,21.82
2023-01-18T07:12:48.815Z,21.77
2023-01-18T07:15:24.263Z,21.79
2023-01-18T07:17:56.285Z,21.81
2023-01-18T07:20:32.444Z,21.93
2023-01-18T07:23:05.004Z,22.10
2023-01-18T07:25:40.917Z,22.25
2023-01-18T07:28:13.817Z,22.33
2023-01-18T07:30:44.203Z,22.32
2023-01-18T07:33:14.374Z,22.40
2023-01-18T07:35:44.230Z,22.41
2023-01-18T07:38:15.653Z,22.40
2023-01-18T07:40:46.929Z,22.43
2023-01-18T07:43:18.876Z,22.41
2023-01-18T07:45:58.161Z,22.36
2023-01-18T07:48:38.810Z,22.46
2023-01-18T07:51:11.215Z,22.47
2023-01-18T07:53:40.099Z,22.63
2023-01-18T07:56:17.863Z,22.69
2023-01-18T07:58:52.941Z,22.78
2023-01-18T08:01:22.804Z,22.91
2023-01-18T08:03:51.117Z,23.00
2023-01-18T08:06:26.376Z,23.27
2023-01-18T08:09:02.513Z,23.87
2023-01-18T08:11:32.483Z,24.83
2023-01-18T08:14:05.236Z,25.79
2023-01-18T08:16:39.239Z,25.53
2023-01-18T08:19:10.096Z,25.48
2023-01-18T08:21:41.200Z,25.41
2023-01-18T08:24:16.367Z,25.45
2023-01-18T08:26:49.327Z,25.37
2023-01-18T08:29:22.632Z,25.42
2023-01-18T08:32:03.925Z,25.18
2023-01-18T08:34:40.811Z,25.24
2023-01-18T08:37:17.531Z,25.26
2023-01-18T08:39:56.427Z,25.14
2023-01-18T08:42:32.395Z,24.81
2023-01-18T08:45:07.849Z,24.80
2023-01-18T08:47:51.921Z,24.83
2023-01-18T08:50:28.673Z,24.74
2023-01-18T08:53:00.768Z,24.96
2023-01-18T08:55:38.170Z,24.87
2023-01-18T08:58:15.028Z,24.65
2023-01-18T09:00:55.205Z,24.68
2023-01-18T09:03:25.464Z,25.80
2023-01-18T09:06:10.017Z,26.99
2023-01-18T09:08:42.068Z,27.63
2023-01-18T09:11:13.276Z,27.92
2023-01-18T09:14:01.007Z,28.41
2023-01-18T09:16:40.011Z,28.18
2023-01-18T09:19:11.497Z,27.89
2023-01-18T09:21:51.100Z,27.12
2023-01-18T09:24:35.418Z,27.35
2023-01-18T09:27:08.527Z,28.18
2023-01-18T09:29:53.032Z,29.11
2023-01-18T09:32:35.207Z,28.57
2023-01-18T09:35:18.397Z,27.70
2023-01-18T09:37:57.677Z,26.79
2023-01-18T09:40:44.204Z,26.84
2023-01-18T09:43:33.167Z,26.96
2023-01-18T09:46:02.074Z,26.77
2023-01-18T09:48:45.746Z,26.21
2023-01-18T09:51:25.679Z,26.90
2023-01-18T09:54:25.747Z,27.43
2023-01-18T09:57:12.308Z,28.00
2023-01-18T09:59:59.777Z,29.13
2023-01-18T10:02:36.175Z,29.15
2023-01-18T10:05:17.644Z,28.33
2023-01-18T10:08:08.055Z,27.88
2023-01-18T10:10:41.482Z,27.97
2023-01-18T10:13:27.570Z,27.14
2023-01-18T10:16:03.281Z,26.85
2023-01-18T10:18:30.919Z,26.53
2023-01-18T10:21:05.454Z,26.75
2023-01-18T10:23:56.411Z,26.48
2023-01-18T10:26:32.090Z,26.23
2023-01-18T10:29:15.834Z,25.76
2023-01-18T10:31:47.202Z,25.61
2023-01-18T10:34:24.576Z,25.34
2023-01-18T10:36:58.956Z,25.15
2023-01-18T10:39:34.294Z,24.84
2023-01-18T10:42:07.223Z,24.68
2023-01-18T10:44:38.904Z,24.68
2023-01-18T10:47:09.164Z,24.55
2023-01-18T10:49:43.421Z,24.79
2023-01-18T10:52:28.614Z,25.08
2023-01-18T10:55:03.184Z,25.26
2023-01-18T10:57:34.697Z,25.04
2023-01-18T11:00:12.635Z,24.85
2023-01-18T11:02:47.546Z,24.61
2023-01-18T11:05:29.436Z,24.40
2023-01-18T11:08:31.701Z,24.64
2023-01-18T11:11:03.935Z,24.85
2023-01-18T11:13:35.106Z,24.93
2023-01-18T11:16:21.033Z,24.86
2023-01-18T11:19:01.091Z,24.66
2023-01-18T11:21:45.650Z,24.90
2023-01-18T11:24:30.476Z,25.04
2023-01-18T11:27:04.702Z,24.91
2023-01-18T11:29:39.691Z,24.86
2023-01-18T11:32:19.734Z,24.70
2023-01-18T11:34:52.484Z,24.21
2023-01-18T11:37:37.531Z,24.40
2023-01-18T11:40:37.965Z,24.63
2023-01-18T11:43:28.148Z,24.77
2023-01-18T11:46:10.593Z,24.90
2023-01-18T11:49:02.235Z,24.47
2023-01-18T11:51:45.948Z,24.11
2023-01-18T11:54:22.874Z,23.94
2023-01-18T11:57:03.248Z,23.63
2023-01-18T11:59:37.393Z,23.52
2023-01-18T12:02:30.938Z,23.39
2023-01-18T12:05:13.586Z,23.33
2023-01-18T12:07:55.470Z,23.10
2023-01-18T12:10:27.281Z,23.07
2023-01-18T12:13:04.184Z,22.88
2023-01-18T12:15:39.673Z,22.83
2023-01-18T12:18:16.601Z,22.79
2023-01-18T12:21:22.456Z,22.85
2023-01-18T12:24:04.727Z,22.76
2023-01-18T12:26:47.588Z,22.76
2023-01-18T12:29:38.901Z,22.71
2023-01-18T12:32:33.635Z,22.65
2023-01-18T12:35:23.009Z,22.69
2023-01-18T12:38:02.707Z,22.70
2023-01-18T12:40:39.204Z,22.69
2023-01-18T12:43:38.709Z,22.67
2023-01-18T12:46:11.175Z,22.67
2023-01-18T12:49:04.807Z,22.71
2023-01-18T12:51:36.761Z,22.56
2023-01-18T12:54:20.826Z,22.57
2023-01-18T12:56:52.830Z,22.62
2023-01-18T12:59:32.057Z,22.65
2023-01-18T13:02:54.920Z,22.59
2023-01-18T13:05:52.600Z,22.63
2023-01-18T13:08:44.901Z,22.77
2023-01-18T13:11:26.396Z,23.00
2023-01-18T13:14:17.363Z,23.10
2023-01-18T13:17:05.791Z,23.23
2023-01-18T13:19:47.300Z,23.27
2023-01-18T13:22:21.385Z,23.53
2023-01-18T13:25:09.026Z,23.87
2023-01-18T13:27:57.973Z,23.89
2023-01-18T13:30:26.877Z,24.13
2023-01-18T13:32:55.705Z,24.36
2023-01-18T13:35:33.648Z,24.16
2023-01-18T13:38:16.554Z,24.16
2023-01-18T13:40:59.277Z,23.94
2023-01-18T13:43:36.321Z,24.02
2023-01-18T13:46:25.529Z,23.85
2023-01-18T13:49:02.576Z,23.62
2023-01-18T13:51:42.731Z,23.68
2023-01-18T13:54:39.826Z,23.61
2023-01-18T13:57:10.256Z,23.65
2023-01-18T13:59:51.189Z,23.40
2023-01-18T14:02:36.067Z,23.37
2023-01-18T14:05:16.452Z,23.38
2023-01-18T14:07:52.485Z,23.43
2023-01-18T14:10:40.533Z,23.49
2023-01-18T14:13:19.131Z,23.44
2023-01-18T14:16:01.592Z,23.90
2023-01-18T14:18:40.778Z,24.10
2023-01-18T14:21:37.816Z,24.10
2023-01-18T14:24:20.531Z,23.81
2023-01-18T14:26:57.790Z,23.90
2023-01-18T14:29:44.690Z,24.09
2023-01-18T14:32:30.061Z,24.14
2023-01-18T14:35:26.117Z,24.24
2023-01-18T14:38:18.202Z,24.23
2023-01-18T14:40:57.425Z,24.23
2023-01-18T14:43:36.649Z,24.20
2023-01-18T14:46:14.973Z,24.37
2023-01-18T14:48:59.023Z,23.93
2023-01-18T14:51:33.483Z,24.10
2023-01-18T14:54:09.003Z,23.80
2023-01-18T14:56:48.930Z,23.78
2023-01-18T14:59:33.535Z,23.64
2023-01-18T15:02:19.974Z,23.48
2023-01-18T15:04:49.628Z,23.33
2023-01-18T15:07:38.392Z,23.30
2023-01-18T15:10:12.623Z,23.25
2023-01-18T15:12:49.939Z,23.20
2023-01-18T15:15:33.905Z,23.07
2023-01-18T15:18:11.414Z,23.00
2023-01-18T15:21:15.057Z,23.02
2023-01-18T15:23:47.199Z,23.05
2023-01-18T15:26:20.716Z,23.05
2023-01-18T15:29:08.368Z,23.05
2023-01-18T15:31:48.215Z,23.00
2023-01-18T15:34:21.686Z,23.07
2023-01-18T15:37:06.319Z,23.18
2023-01-18T15:39:59.528Z,23.43
2023-01-18T15:42:33.117Z,23.82
2023-01-18T15:45:09.885Z,24.42
2023-01-18T15:48:00.363Z,25.07
2023-01-18T15:50:44.806Z,25.13
2023-01-18T15:53:21.979Z,24.83
2023-01-18T15:55:51.909Z,24.97
2023-01-18T15:58:38.145Z,24.86
2023-01-18T16:01:27.544Z,24.62
2023-01-18T16:04:07.961Z,24.56
2023-01-18T16:06:45.793Z,24.89
2023-01-18T16:09:26.537Z,25.24
2023-01-18T16:11:59.923Z,25.71
2023-01-18T16:14:46.313Z,25.66
2023-01-18T16:17:27.037Z,25.86
2023-01-18T16:20:07.999Z,25.89
2023-01-18T16:22:46.495Z,26.10
2023-01-18T16:25:21.390Z,26.03
2023-01-18T16:28:02.385Z,25.83
2023-01-18T16:30:39.180Z,25.97
2023-01-18T16:33:23.741Z,26.21
2023-01-18T16:36:01.608Z,25.74
2023-01-18T16:38:33.170Z,25.42
2023-01-18T16:41:06.770Z,24.99
2023-01-18T16:43:47.008Z,24.62
2023-01-18T16:46:19.960Z,24.34
2023-01-18T16:48:53.329Z,24.01
2023-01-18T16:51:28.679Z,23.82
2023-01-18T16:54:06.331Z,23.75
2023-01-18T16:56:34.757Z,23.52
2023-01-18T16:59:15.475Z,23.39
2023-01-18T17:01:46.988Z,23.30
2023-01-18T17:04:15.645Z,23.27
2023-01-18T17:06:45.145Z,23.12
2023-01-18T17:09:28.115Z,23.18
2023-01-18T17:11:58.474Z,23.05
2023-01-18T17:14:29.224Z,22.98
2023-01-18T17:16:57.146Z,23.06
2023-01-18T17:19:25.937Z,22.99
2023-01-18T17:21:56.692Z,22.98
2023-01-18T17:24:25.650Z,23.01
2023-01-18T17:26:56.288Z,22.99
2023-01-18T17:29:32.813Z,22.89
2023-01-18T17:32:16.864Z,22.76
2023-01-18T17:34:52.825Z,22.82
2023-01-18T17:37:20.561Z,22.87
2023-01-18T17:40:10.811Z,22.83
2023-01-18T17:42:40.995Z,22.83
2023-01-18T17:45:14.500Z,22.82
2023-01-18T17:47:43.424Z,22.84
2023-01-18T17:50:15.501Z,22.74
2023-01-18T17:52:46.025Z,22.75
2023-01-18T17:55:14.312Z,22.68
2023-01-18T17:57:45.022Z,22.73
2023-01-18T18:00:18.460Z,22.76
2023-01-18T18:02:51.618Z,22.70
2023-01-18T18:05:20.111Z,22.78
2023-01-18T18:07:49.774Z,22.76
2023-01-18T18:10:17.728Z,22.75
2023-01-18T18:12:49.939Z,22.72
2023-01-18T18:15:25.607Z,22.66
2023-01-18T18:17:55.552Z,22.67
2023-01-18T18:20:25.325Z,22.64
2023-01-18T18:22:58.103Z,22.68
2023-01-18T18:25:31.732Z,22.65
2023-01-18T18:28:02.507Z,22.62
2023-01-18T18:30:33.168Z,22.66
2023-01-18T18:33:05.738Z,22.63
2023-01-18T18:35:35.976Z,22.60
2023-01-18T18:38:08.505Z,22.58
2023-01-18T18:40:38.699Z,22.59
2023-01-18T18:43:11.316Z,22.60
2023-01-18T18:45:39.911Z,22.60
2023-01-18T18:48:10.212Z,22.59
2023-01-18T18:50:43.921Z,22.55
2023-01-18T18:53:14.027Z,22.55
2023-01-18T18:55:41.548Z,22.56
2023-01-18T18:58:11.794Z,22.55
2023-01-18T19:00:43.976Z,22.53
2023-01-18T19:03:11.676Z,22.49
2023-01-18T19:05:42.622Z,22.48
2023-01-18T19:08:12.785Z,22.49
2023-01-18T19:10:40.497Z,22.46
2023-01-18T19:13:10.712Z,22.46
2023-01-18T19:15:49.291Z,22.44
2023-01-18T19:18:20.112Z,22.44
2023-01-18T19:20:50.882Z,22.46
2023-01-18T19:23:20.907Z,22.44
2023-01-18T19:25:51.230Z,22.36
2023-01-18T19:28:22.105Z,22.28
2023-01-18T19:30:52.400Z,22.28
2023-01-18T19:33:23.141Z,22.30
2023-01-18T19:35:53.559Z,22.35
2023-01-18T19:38:21.429Z,22.41
2023-01-18T19:40:51.805Z,22.38
2023-01-18T19:43:22.031Z,22.42
2023-01-18T19:45:52.848Z,22.44
2023-01-18T19:48:25.628Z,22.45
2023-01-18T19:51:10.213Z,22.42
2023-01-18T19:53:47.008Z,22.40
2023-01-18T19:56:16.004Z,22.39
2023-01-18T19:58:44.820Z,22.35
2023-01-18T20:01:30.034Z,22.35
2023-01-18T20:04:05.874Z,22.36
2023-01-18T20:06:40.115Z,22.33
2023-01-18T20:09:18.495Z,22.32
2023-01-18T20:11:50.076Z,22.30
2023-01-18T20:14:19.503Z,22.31
2023-01-18T20:16:53.035Z,22.28
2023-01-18T20:19:24.124Z,22.29
2023-01-18T20:21:54.400Z,22.31
2023-01-18T20:24:27.469Z,22.32
2023-01-18T20:27:14.865Z,22.30
2023-01-18T20:29:46.620Z,22.38
2023-01-18T20:32:17.946Z,22.28
2023-01-18T20:34:50.804Z,22.15
2023-01-18T20:37:18.632Z,22.21
2023-01-18T20:39:47.285Z,22.19
2023-01-18T20:42:20.891Z,22.20
2023-01-18T20:44:54.650Z,22.17
2023-01-18T20:47:31.039Z,22.18
2023-01-18T20:50:01.179Z,22.21
2023-01-18T20:52:37.037Z,22.27
2023-01-18T20:55:05.242Z,22.27
2023-01-18T20:57:35.778Z,22.29
2023-01-18T21:00:06.353Z,22.25
2023-01-18T21:02:36.731Z,22.22
2023-01-18T21:05:07.832Z,22.20
2023-01-18T21:07:40.211Z,22.19
2023-01-18T21:10:10.871Z,22.24
2023-01-18T21:12:44.435Z,22.19
2023-01-18T21:15:14.835Z,22.21
2023-01-18T21:17:50.111Z,22.11
2023-01-18T21:20:20.606Z,22.13
2023-01-18T21:22:49.010Z,22.19
2023-01-18T21:25:16.784Z,22.21
2023-01-18T21:27:46.849Z,22.24
2023-01-18T21:30:20.431Z,22.20
2023-01-18T21:32:53.696Z,22.21
2023-01-18T21:35:22.137Z,22.23
2023-01-18T21:37:56.543Z,22.23
2023-01-18T21:40:27.248Z,22.23
2023-01-18T21:43:16.449Z,22.21
2023-01-18T21:45:55.981Z,22.23
2023-01-18T21:48:28.170Z,22.24
2023-01-18T21:51:21.405Z,22.21
2023-01-18T21:54:10.491Z,22.18
2023-01-18T21:56:40.477Z,22.19
2023-01-18T21:59:08.271Z,22.18
2023-01-18T22:01:47.576Z,22.19
2023-01-18T22:04:36.818Z,22.23
2023-01-18T22:07:05.038Z,22.31
2023-01-18T22:09:39.332Z,22.40
2023-01-18T22:12:07.100Z,22.54
2023-01-18T22:14:39.450Z,22.67
2023-01-18T22:17:13.341Z,22.80
2023-01-18T22:19:43.972Z,22.88
2023-01-18T22:22:13.090Z,22.99
2023-01-18T22:24:43.770Z,23.15
2023-01-18T22:27:16.989Z,23.29
2023-01-18T22:29:49.964Z,23.28
2023-01-18T22:32:21.649Z,23.23
2023-01-18T22:34:53.413Z,23.30
2023-01-18T22:37:22.109Z,23.34
2023-01-18T22:39:52.924Z,23.28
2023-01-18T22:42:24.564Z,23.18
2023-01-18T22:44:57.089Z,23.20
2023-01-18T22:47:28.130Z,23.25
2023-01-18T22:49:55.515Z,23.20
2023-01-18T22:52:26.097Z,23.26
2023-01-18T22:54:53.473Z,23.40
2023-01-18T22:57:23.822Z,23.34
2023-01-18T22:59:51.575Z,23.29
2023-01-18T23:02:21.845Z,23.02
2023-01-18T23:04:49.611Z,22.84
2023-01-18T23:07:17.548Z,22.72
2023-01-18T23:09:47.373Z,22.48
2023-01-18T23:12:17.890Z,22.40
2023-01-18T23:15:04.721Z,22.36
2023-01-18T23:17:42.776Z,22.36
2023-01-18T23:20:16.231Z,22.40
2023-01-18T23:22:49.615Z,22.32
2023-01-18T23:25:17.070Z,22.31
2023-01-18T23:27:45.258Z,22.20
2023-01-18T23:30:15.883Z,22.13
2023-01-18T23:32:46.478Z,22.17
2023-01-18T23:35:19.341Z,22.26
2023-01-18T23:37:46.885Z,22.22
2023-01-18T23:40:35.876Z,22.19
2023-01-18T23:43:22.379Z,22.20
2023-01-18T23:46:11.210Z,22.17
2023-01-18T23:48:57.540Z,22.12
2023-01-18T23:51:46.164Z,22.10
2023-01-18T23:54:22.459Z,22.09
2023-01-18T23:56:52.777Z,22.09
2023-01-18T23:59:25.719Z,22.12
